Cookstown, New Jersey
Current Conditions -  °F | °C
As of 10:58 PM on Tuesday 25 Nov 2014 (Local Time) from KWRI Reporting Station
Clear Clear  
Wind Chill: 46°   Ceiling: Unl
Heat Index: 46°   Visibility: 10mi
Dew Point: 34°   Wind: 2mph
Humidity: 64%   Direction: 270°W
Pressure: 30.16"   Gusts: NA
Location:  40.05°N, 74.56°W
Report Text: KWRI 260358Z AUTO 27002KT 10SM CLR 08/01 A3016 RMK AO2 SLP217 T00760011
Loading
Personal Weather Stations






























Interactive Weather Map New forecast layout! Learn more

10-Day Weather Forecast

Advertisements
Track Severe Weather on mobile